createdAt,value
2017-07-15T00:01:20.409Z,89.40
2017-07-15T00:03:48.784Z,91.00
2017-07-15T00:06:16.397Z,91.00
2017-07-15T00:08:43.992Z,91.30
2017-07-15T00:11:11.614Z,89.30
2017-07-15T00:13:39.241Z,89.80
2017-07-15T00:16:07.605Z,91.10
2017-07-15T00:18:35.257Z,91.10
2017-07-15T00:21:02.907Z,90.80
2017-07-15T00:23:30.537Z,90.50
2017-07-15T00:25:58.186Z,90.70
2017-07-15T00:28:25.747Z,90.30
2017-07-15T00:30:53.366Z,90.40
2017-07-15T00:33:21.733Z,91.30
2017-07-15T00:35:49.364Z,90.90
2017-07-15T00:38:16.921Z,91.30
2017-07-15T00:40:44.552Z,91.50
2017-07-15T00:43:12.908Z,89.40
2017-07-15T00:45:40.558Z,89.30
2017-07-15T00:48:08.147Z,90.00
2017-07-15T00:50:36.576Z,90.00
2017-07-15T00:53:04.143Z,89.90
2017-07-15T00:55:31.774Z,88.40
2017-07-15T00:57:59.379Z,90.30
2017-07-15T01:00:27.058Z,90.40
2017-07-15T01:02:54.719Z,90.80
2017-07-15T01:05:22.323Z,90.50
2017-07-15T01:07:49.958Z,89.60
2017-07-15T01:10:17.689Z,88.50
2017-07-15T01:12:45.283Z,87.00
2017-07-15T01:15:12.954Z,88.30
2017-07-15T01:17:41.306Z,88.90
2017-07-15T01:20:08.929Z,88.80
2017-07-15T01:22:36.553Z,87.70
2017-07-15T01:25:04.178Z,89.00
2017-07-15T01:27:31.818Z,89.50
2017-07-15T01:29:59.408Z,89.20
2017-07-15T01:32:27.150Z,86.60
2017-07-15T01:34:54.747Z,86.90
2017-07-15T01:37:22.393Z,87.80
2017-07-15T01:39:49.962Z,89.10
2017-07-15T01:42:17.604Z,87.30
2017-07-15T01:44:45.247Z,88.80
2017-07-15T01:47:12.895Z,85.80
2017-07-15T01:49:40.572Z,85.90
2017-07-15T01:52:08.207Z,87.20
2017-07-15T01:54:35.807Z,89.80
2017-07-15T01:57:03.403Z,86.40
2017-07-15T01:59:31.807Z,87.80
2017-07-15T02:01:59.448Z,87.70
2017-07-15T02:04:27.075Z,87.00
2017-07-15T02:06:54.764Z,86.60
2017-07-15T02:09:22.409Z,86.10
2017-07-15T02:11:50.043Z,85.90
2017-07-15T02:14:17.641Z,85.70
2017-07-15T02:16:45.303Z,89.10
2017-07-15T02:19:12.963Z,86.60
2017-07-15T02:21:40.607Z,88.40
2017-07-15T02:24:08.290Z,86.60
2017-07-15T02:26:35.918Z,87.00
2017-07-15T02:29:03.538Z,86.20
2017-07-15T02:31:31.117Z,87.80
2017-07-15T02:33:58.708Z,87.30
2017-07-15T02:36:26.343Z,86.10
2017-07-15T02:38:54.730Z,84.30
2017-07-15T02:41:22.398Z,84.30
2017-07-15T02:43:50.069Z,85.50
2017-07-15T02:46:17.695Z,86.40
2017-07-15T02:48:45.357Z,85.90
2017-07-15T02:51:13.758Z,85.20
2017-07-15T02:53:41.415Z,85.00
2017-07-15T02:56:09.037Z,84.30
2017-07-15T02:58:36.650Z,86.40
2017-07-15T03:01:04.301Z,83.90
2017-07-15T03:03:31.946Z,85.90
2017-07-15T03:05:59.583Z,86.20
2017-07-15T03:08:27.168Z,85.00
2017-07-15T03:10:54.768Z,85.50
2017-07-15T03:13:22.436Z,87.70
2017-07-15T03:15:50.024Z,86.90
2017-07-15T03:18:17.622Z,86.80
2017-07-15T03:20:46.033Z,86.50
2017-07-15T03:23:13.644Z,86.40
2017-07-15T03:25:41.244Z,87.00
2017-07-15T03:28:09.615Z,87.20
2017-07-15T03:30:37.995Z,86.60
2017-07-15T03:33:05.607Z,86.50
2017-07-15T03:35:33.228Z,86.80
2017-07-15T03:38:00.845Z,87.60
2017-07-15T03:40:28.441Z,88.50
2017-07-15T03:42:56.809Z,86.40
2017-07-15T03:45:25.199Z,87.30
2017-07-15T03:47:53.553Z,87.40
2017-07-15T03:50:21.111Z,87.30
2017-07-15T03:52:48.756Z,86.40
2017-07-15T03:55:16.365Z,85.40
2017-07-15T03:57:44.725Z,87.20
2017-07-15T04:00:12.327Z,87.10
2017-07-15T04:02:39.919Z,86.60
2017-07-15T04:05:07.473Z,86.30
2017-07-15T04:07:35.007Z,84.60
2017-07-15T04:10:02.551Z,86.90
2017-07-15T04:12:30.128Z,84.20
2017-07-15T04:14:57.704Z,84.00
2017-07-15T04:17:25.316Z,87.80
2017-07-15T04:19:52.966Z,87.60
2017-07-15T04:22:20.572Z,86.40
2017-07-15T04:24:48.163Z,86.60
2017-07-15T04:27:15.764Z,85.20
2017-07-15T04:29:43.329Z,86.70
2017-07-15T04:32:10.978Z,84.80
2017-07-15T04:34:38.580Z,86.30
2017-07-15T04:37:06.938Z,85.70
2017-07-15T04:39:34.479Z,85.50
2017-07-15T04:42:02.857Z,85.30
2017-07-15T04:44:30.427Z,84.30
2017-07-15T04:46:58.040Z,83.60
2017-07-15T04:49:25.612Z,84.20
2017-07-15T04:51:53.234Z,84.10
2017-07-15T04:54:20.809Z,83.40
2017-07-15T04:56:48.408Z,83.00
2017-07-15T04:59:15.967Z,83.60
2017-07-15T05:01:43.581Z,82.00
2017-07-15T05:04:11.157Z,79.60
2017-07-15T05:06:38.780Z,77.30
2017-07-15T05:09:06.328Z,75.00
2017-07-15T05:11:33.901Z,76.50
2017-07-15T05:14:01.418Z,77.60
2017-07-15T05:16:28.978Z,78.80
2017-07-15T05:18:56.658Z,78.90
2017-07-15T05:21:24.218Z,80.80
2017-07-15T05:23:51.813Z,80.50
2017-07-15T05:26:19.393Z,79.20
2017-07-15T05:28:46.973Z,77.40
2017-07-15T05:31:14.569Z,77.40
2017-07-15T05:33:42.231Z,73.60
2017-07-15T05:36:09.827Z,72.80
2017-07-15T05:38:38.138Z,75.00
2017-07-15T05:41:05.716Z,74.90
2017-07-15T05:43:33.268Z,77.90
2017-07-15T05:46:01.689Z,77.90
2017-07-15T05:48:29.392Z,77.70
2017-07-15T05:50:57.000Z,75.60
2017-07-15T05:53:24.606Z,74.60
2017-07-15T05:55:52.203Z,73.20
2017-07-15T05:58:19.819Z,73.00
2017-07-15T06:00:48.145Z,66.60
2017-07-15T06:03:15.636Z,66.50
2017-07-15T06:05:43.153Z,67.10
2017-07-15T06:08:10.649Z,69.70
2017-07-15T06:10:38.217Z,64.70
2017-07-15T06:13:05.720Z,63.60
2017-07-15T06:15:34.088Z,59.80
2017-07-15T06:18:05.716Z,59.50
2017-07-15T06:20:33.312Z,59.50
2017-07-15T06:23:00.852Z,61.80
2017-07-15T06:25:28.396Z,63.30
2017-07-15T06:27:55.930Z,65.30
2017-07-15T06:30:23.548Z,67.20
2017-07-15T06:32:54.323Z,67.80
2017-07-15T06:35:25.455Z,72.70
2017-07-15T06:37:52.979Z,72.20
2017-07-15T06:40:21.205Z,73.10
2017-07-15T06:42:48.739Z,74.30
2017-07-15T06:45:16.322Z,73.80
2017-07-15T06:47:43.902Z,73.00
2017-07-15T06:50:11.477Z,71.90
2017-07-15T06:52:39.006Z,70.60
2017-07-15T06:55:06.577Z,70.40
2017-07-15T07:00:13.869Z,69.70
2017-07-15T07:02:41.497Z,70.00
2017-07-15T07:05:09.864Z,70.20
2017-07-15T07:07:37.401Z,70.20
2017-07-15T07:10:05.082Z,70.70
2017-07-15T07:12:32.645Z,71.10
2017-07-15T07:15:00.231Z,69.70
2017-07-15T07:17:27.828Z,69.20
2017-07-15T07:19:55.385Z,65.90
2017-07-15T07:22:22.939Z,67.30
2017-07-15T07:24:50.761Z,67.10
2017-07-15T07:29:57.858Z,65.40
2017-07-15T07:32:25.376Z,63.10
2017-07-15T07:34:52.908Z,65.00
2017-07-15T07:37:20.400Z,62.80
2017-07-15T07:39:47.954Z,63.80
2017-07-15T07:42:15.487Z,63.70
2017-07-15T07:44:43.042Z,65.60
2017-07-15T07:47:10.577Z,63.50
2017-07-15T07:49:38.145Z,63.10
2017-07-15T07:52:05.686Z,60.70
2017-07-15T07:54:33.230Z,59.40
2017-07-15T07:57:00.787Z,60.00
2017-07-15T07:59:28.304Z,60.60
2017-07-15T08:01:55.835Z,59.30
2017-07-15T08:04:23.413Z,60.20
2017-07-15T08:06:50.970Z,58.50
2017-07-15T08:09:18.489Z,58.90
2017-07-15T08:11:46.042Z,58.70
2017-07-15T08:14:13.570Z,59.90
2017-07-15T08:16:41.093Z,58.20
2017-07-15T08:19:08.634Z,59.60
2017-07-15T08:21:36.194Z,58.50
2017-07-15T08:24:03.724Z,58.10
2017-07-15T08:26:31.298Z,58.80
2017-07-15T08:28:58.809Z,58.00
2017-07-15T08:31:26.352Z,59.50
2017-07-15T08:33:57.105Z,61.40
2017-07-15T08:36:24.638Z,57.90
2017-07-15T08:38:52.178Z,59.50
2017-07-15T08:41:22.761Z,58.70
2017-07-15T08:43:50.284Z,59.20
2017-07-15T08:46:17.821Z,59.80
2017-07-15T08:48:45.331Z,59.80
2017-07-15T08:51:12.863Z,58.30
2017-07-15T08:53:40.369Z,59.00
2017-07-15T08:56:07.900Z,57.80
2017-07-15T08:58:35.405Z,56.30
2017-07-15T09:01:02.932Z,54.80
2017-07-15T09:03:30.474Z,54.90
2017-07-15T09:05:58.014Z,54.50
2017-07-15T09:08:25.534Z,55.10
2017-07-15T09:10:53.057Z,54.50
2017-07-15T09:13:20.596Z,54.90
2017-07-15T09:15:48.720Z,57.00
2017-07-15T09:18:16.231Z,56.50
2017-07-15T09:20:43.779Z,55.10
2017-07-15T09:23:11.288Z,54.20
2017-07-15T09:25:39.773Z,53.80
2017-07-15T09:28:07.309Z,54.80
2017-07-15T09:30:34.870Z,54.30
2017-07-15T09:33:02.409Z,52.00
2017-07-15T09:35:29.951Z,51.10
2017-07-15T09:37:57.477Z,51.90
2017-07-15T09:40:28.771Z,52.80
2017-07-15T09:42:56.307Z,53.70
2017-07-15T09:45:24.054Z,51.10
2017-07-15T09:47:51.573Z,52.50
2017-07-15T09:50:19.121Z,52.00
2017-07-15T09:52:46.645Z,50.60
2017-07-15T09:55:14.202Z,50.40
2017-07-15T09:57:41.718Z,51.40
2017-07-15T10:00:09.266Z,50.80
2017-07-15T10:02:36.783Z,50.80
2017-07-15T10:05:04.343Z,49.40
2017-07-15T10:07:31.881Z,49.50
2017-07-15T10:09:59.412Z,48.70
2017-07-15T10:12:26.913Z,49.40
2017-07-15T10:14:54.518Z,50.40
2017-07-15T10:17:22.050Z,48.80
2017-07-15T10:19:49.592Z,47.80
2017-07-15T10:22:17.100Z,47.60
2017-07-15T10:24:44.638Z,47.20
2017-07-15T10:27:12.188Z,49.30
2017-07-15T10:29:39.747Z,48.70
2017-07-15T10:32:07.265Z,47.90
2017-07-15T10:34:34.769Z,50.60
2017-07-15T10:37:02.315Z,47.10
2017-07-15T10:39:29.862Z,47.10
2017-07-15T10:41:57.421Z,45.20
2017-07-15T10:44:24.940Z,45.80
2017-07-15T10:46:52.473Z,46.60
2017-07-15T10:49:19.981Z,48.90
2017-07-15T10:51:47.551Z,47.90
2017-07-15T10:54:15.099Z,50.10
2017-07-15T10:56:42.640Z,48.50
2017-07-15T10:59:10.162Z,49.50
2017-07-15T11:01:37.747Z,51.20
2017-07-15T11:04:05.253Z,48.90
2017-07-15T11:06:32.764Z,50.00
2017-07-15T11:09:03.416Z,51.10
2017-07-15T11:11:30.937Z,51.40
2017-07-15T11:13:58.443Z,50.70
2017-07-15T11:16:25.974Z,50.00
2017-07-15T11:18:53.493Z,48.20
2017-07-15T11:21:21.036Z,49.00
2017-07-15T11:23:48.557Z,48.90
2017-07-15T11:26:17.049Z,50.10
2017-07-15T11:28:45.282Z,48.20
2017-07-15T11:31:12.836Z,50.00
2017-07-15T11:33:40.417Z,51.40
2017-07-15T11:39:00.631Z,48.70
2017-07-15T11:41:28.174Z,48.10
2017-07-15T11:44:01.451Z,49.20
2017-07-15T11:46:28.978Z,50.70
2017-07-15T11:48:56.520Z,47.00
2017-07-15T11:51:24.058Z,47.80
2017-07-15T11:53:51.605Z,47.90
2017-07-15T11:56:19.157Z,47.30
2017-07-15T11:58:46.676Z,48.60
2017-07-15T12:01:14.218Z,48.40
2017-07-15T12:03:41.767Z,47.30
2017-07-15T12:06:09.315Z,48.40
2017-07-15T12:08:53.786Z,47.10
2017-07-15T12:11:21.337Z,46.80
2017-07-15T12:13:48.859Z,47.20
2017-07-15T12:16:16.396Z,47.10
2017-07-15T12:18:43.930Z,48.00
2017-07-15T12:21:11.477Z,47.80
2017-07-15T12:23:39.033Z,48.40
2017-07-15T12:26:06.628Z,48.40
2017-07-15T12:28:34.181Z,48.50
2017-07-15T12:31:01.762Z,47.90
2017-07-15T12:33:30.169Z,48.80
2017-07-15T12:36:06.328Z,49.10
2017-07-15T12:38:33.868Z,48.50
2017-07-15T12:41:01.427Z,47.80
2017-07-15T12:43:28.984Z,47.70
2017-07-15T12:45:56.563Z,44.00
2017-07-15T12:48:27.349Z,43.80
2017-07-15T12:50:54.883Z,45.30
2017-07-15T12:53:22.402Z,46.40
2017-07-15T12:55:49.956Z,44.80
2017-07-15T12:58:17.486Z,43.20
2017-07-15T13:00:46.025Z,44.00
2017-07-15T13:03:13.582Z,45.30
2017-07-15T13:05:41.183Z,44.50
2017-07-15T13:08:08.689Z,46.60
2017-07-15T13:10:36.222Z,44.60
2017-07-15T13:13:03.720Z,44.80
2017-07-15T13:15:31.242Z,46.20
2017-07-15T13:17:58.789Z,45.60
2017-07-15T13:20:26.330Z,45.90
2017-07-15T13:22:53.838Z,44.50
2017-07-15T13:25:21.365Z,45.50
2017-07-15T13:27:48.881Z,45.00
2017-07-15T13:30:16.425Z,46.40
2017-07-15T13:32:43.945Z,46.60
2017-07-15T13:35:11.487Z,46.00
2017-07-15T13:37:39.010Z,45.70
2017-07-15T13:40:06.533Z,44.60
2017-07-15T13:42:34.121Z,43.80
2017-07-15T13:45:01.646Z,42.50
2017-07-15T13:47:29.184Z,42.30
2017-07-15T13:49:56.739Z,44.10
2017-07-15T13:52:24.253Z,44.50
2017-07-15T13:54:51.808Z,44.80
2017-07-15T13:57:19.324Z,45.10
2017-07-15T13:59:46.881Z,44.20
2017-07-15T14:02:14.414Z,43.80
2017-07-15T14:09:27.195Z,42.90
2017-07-15T14:12:01.044Z,44.90
2017-07-15T14:14:28.710Z,45.10
2017-07-15T14:16:56.263Z,44.30
2017-07-15T14:19:23.849Z,43.40
2017-07-15T14:21:51.668Z,42.80
2017-07-15T14:24:19.311Z,42.20
2017-07-15T14:29:43.275Z,42.90
2017-07-15T14:32:10.847Z,44.40
2017-07-15T14:34:38.450Z,44.50
2017-07-15T14:37:06.120Z,44.90
2017-07-15T14:39:33.707Z,46.70
2017-07-15T14:42:01.713Z,45.80
2017-07-15T14:44:29.249Z,43.40
2017-07-15T14:46:56.796Z,44.10
2017-07-15T14:49:24.382Z,44.50
2017-07-15T14:51:52.051Z,41.30
2017-07-15T14:54:19.600Z,42.00
2017-07-15T14:56:47.228Z,40.80
2017-07-15T14:59:14.797Z,40.20
2017-07-15T15:01:42.352Z,42.20
2017-07-15T15:04:22.556Z,40.70
2017-07-15T15:07:04.661Z,42.00
2017-07-15T15:09:32.177Z,41.10
2017-07-15T15:11:59.750Z,42.30
2017-07-15T15:14:33.423Z,42.60
2017-07-15T15:17:00.991Z,42.80
2017-07-15T15:19:28.586Z,43.70
2017-07-15T15:21:56.165Z,43.30
2017-07-15T15:24:23.702Z,45.10
2017-07-15T15:26:51.287Z,44.30
2017-07-15T15:29:18.814Z,43.30
2017-07-15T15:31:46.367Z,43.20
2017-07-15T15:34:13.956Z,43.10
2017-07-15T15:36:41.508Z,43.40
2017-07-15T15:39:09.068Z,42.10
2017-07-15T15:41:36.608Z,42.60
2017-07-15T15:44:04.161Z,43.40
2017-07-15T15:46:31.746Z,43.90
2017-07-15T15:48:59.325Z,42.70
2017-07-15T15:51:26.869Z,42.00
2017-07-15T15:53:54.435Z,42.30
2017-07-15T15:56:22.004Z,43.40
2017-07-15T15:58:49.545Z,43.50
2017-07-15T16:01:17.121Z,43.30
2017-07-15T16:03:44.664Z,43.90
2017-07-15T16:06:12.197Z,45.10
2017-07-15T16:08:39.710Z,44.40
2017-07-15T16:11:07.268Z,44.20
2017-07-15T16:13:44.361Z,44.00
2017-07-15T16:16:11.893Z,43.80
2017-07-15T16:18:39.412Z,43.80
2017-07-15T16:21:06.956Z,43.80
2017-07-15T16:23:34.545Z,44.00
2017-07-15T16:26:02.088Z,44.30
2017-07-15T16:28:29.626Z,44.00
2017-07-15T16:30:57.194Z,44.20
2017-07-15T16:33:24.763Z,44.70
2017-07-15T16:35:52.373Z,44.90
2017-07-15T16:38:19.974Z,44.20
2017-07-15T16:40:47.604Z,44.00
2017-07-15T16:43:15.206Z,43.90
2017-07-15T16:45:42.788Z,43.60
2017-07-15T16:48:10.331Z,44.40
2017-07-15T16:50:37.856Z,44.20
2017-07-15T16:53:05.442Z,44.20
2017-07-15T16:55:33.022Z,43.80
2017-07-15T16:58:00.615Z,43.30
2017-07-15T17:00:28.145Z,43.50
2017-07-15T17:02:55.713Z,43.80
2017-07-15T17:05:23.302Z,44.60
2017-07-15T17:07:52.167Z,45.40
2017-07-15T17:10:29.879Z,46.40
2017-07-15T17:12:57.570Z,46.20
2017-07-15T17:15:25.289Z,46.20
2017-07-15T17:17:53.081Z,46.70
2017-07-15T17:20:21.402Z,47.00
2017-07-15T17:22:49.625Z,47.70
2017-07-15T17:25:17.260Z,47.50
2017-07-15T17:27:44.898Z,47.10
2017-07-15T17:30:12.533Z,47.80
2017-07-15T17:32:40.115Z,49.00
2017-07-15T17:35:07.761Z,47.50
2017-07-15T17:37:35.388Z,46.90
2017-07-15T17:40:02.978Z,47.60
2017-07-15T17:42:30.581Z,48.20
2017-07-15T17:44:58.302Z,47.70
2017-07-15T17:47:25.844Z,48.20
2017-07-15T17:49:53.449Z,48.50
2017-07-15T17:52:21.045Z,48.60
2017-07-15T17:55:00.492Z,49.30
2017-07-15T17:57:28.025Z,50.10
2017-07-15T17:59:55.549Z,48.60
2017-07-15T18:02:23.085Z,48.40
2017-07-15T18:04:50.604Z,49.20
2017-07-15T18:07:18.457Z,49.40
2017-07-15T18:09:45.984Z,50.30
2017-07-15T18:12:13.560Z,50.20
2017-07-15T18:14:41.173Z,50.80
2017-07-15T18:17:08.675Z,50.60
2017-07-15T18:19:36.188Z,50.20
2017-07-15T18:22:03.722Z,49.80
2017-07-15T18:24:31.249Z,50.70
2017-07-15T18:26:58.786Z,50.50
2017-07-15T18:29:26.330Z,50.60
2017-07-15T18:31:53.912Z,51.40
2017-07-15T18:34:21.464Z,51.80
2017-07-15T18:36:49.074Z,51.90
2017-07-15T18:39:16.674Z,52.70
2017-07-15T18:41:44.537Z,51.60
2017-07-15T18:44:12.262Z,52.40
2017-07-15T18:46:39.833Z,52.00
2017-07-15T18:49:07.393Z,51.90
2017-07-15T18:51:34.924Z,51.70
2017-07-15T18:54:02.498Z,51.40
2017-07-15T18:56:30.030Z,51.90
2017-07-15T18:59:02.500Z,52.20
2017-07-15T19:01:30.183Z,52.60
2017-07-15T19:03:57.793Z,52.10
2017-07-15T19:06:25.416Z,52.40
2017-07-15T19:08:53.015Z,52.80
2017-07-15T19:11:20.627Z,52.70
2017-07-15T19:13:51.192Z,52.80
2017-07-15T19:16:18.698Z,52.10
2017-07-15T19:18:46.343Z,53.60
2017-07-15T19:21:13.916Z,54.40
2017-07-15T19:23:41.611Z,53.70
2017-07-15T19:26:10.125Z,54.60
2017-07-15T19:28:37.660Z,54.50
2017-07-15T19:31:05.168Z,54.70
2017-07-15T19:33:32.715Z,56.40
2017-07-15T19:36:00.349Z,55.20
2017-07-15T19:38:27.943Z,55.70
2017-07-15T19:40:55.571Z,53.40
2017-07-15T19:43:23.210Z,54.20
2017-07-15T19:46:00.836Z,56.20
2017-07-15T19:48:28.473Z,56.40
2017-07-15T19:50:56.031Z,56.60
2017-07-15T19:53:23.749Z,57.80
2017-07-15T19:55:51.388Z,57.80
2017-07-15T19:58:18.956Z,58.50
2017-07-15T20:00:46.588Z,58.90
2017-07-15T20:03:14.150Z,59.10
2017-07-15T20:05:41.919Z,59.10
2017-07-15T20:08:09.473Z,58.60
2017-07-15T20:10:37.050Z,59.20
2017-07-15T20:13:04.665Z,59.10
2017-07-15T20:15:32.196Z,59.70
2017-07-15T20:17:59.748Z,59.10
2017-07-15T20:20:27.300Z,60.00
2017-07-15T20:23:01.021Z,60.50
2017-07-15T20:25:28.579Z,60.70
2017-07-15T20:27:56.239Z,60.80
2017-07-15T20:30:23.864Z,60.30
2017-07-15T20:32:51.424Z,60.40
2017-07-15T20:35:19.109Z,60.30
2017-07-15T20:37:46.702Z,60.90
2017-07-15T20:40:14.371Z,60.50
2017-07-15T20:42:42.077Z,61.00
2017-07-15T20:45:09.656Z,60.70
2017-07-15T20:47:37.201Z,60.60
2017-07-15T20:50:04.772Z,59.80
2017-07-15T20:52:37.908Z,60.10
2017-07-15T20:55:05.445Z,60.20
2017-07-15T20:57:33.013Z,59.50
2017-07-15T21:00:00.573Z,59.60
2017-07-15T21:02:28.182Z,59.60
2017-07-15T21:04:56.254Z,59.90
2017-07-15T21:07:23.813Z,59.00
2017-07-15T21:09:51.406Z,59.00
2017-07-15T21:12:18.985Z,59.20
2017-07-15T21:14:47.916Z,59.90
2017-07-15T21:17:15.445Z,59.80
2017-07-15T21:19:43.017Z,59.90
2017-07-15T21:22:10.564Z,60.00
2017-07-15T21:24:38.377Z,60.10
2017-07-15T21:27:05.942Z,60.40
2017-07-15T21:29:33.517Z,60.60
2017-07-15T21:32:01.071Z,60.30
2017-07-15T21:34:28.687Z,60.90
2017-07-15T21:36:56.262Z,61.50
2017-07-15T21:39:24.445Z,61.70
2017-07-15T21:41:53.545Z,61.60
2017-07-15T21:44:21.155Z,62.30
2017-07-15T21:46:48.761Z,62.50
2017-07-15T21:49:16.405Z,62.80
2017-07-15T21:51:43.986Z,62.90
2017-07-15T21:54:12.391Z,62.50
2017-07-15T21:56:39.936Z,62.80
2017-07-15T21:59:07.533Z,62.30
2017-07-15T22:01:35.165Z,62.60
2017-07-15T22:04:02.770Z,63.10
2017-07-15T22:06:32.108Z,62.10
2017-07-15T22:08:59.701Z,63.60
2017-07-15T22:11:27.314Z,63.60
2017-07-15T22:13:54.882Z,62.80
2017-07-15T22:16:22.449Z,63.00
2017-07-15T22:18:50.075Z,63.10
2017-07-15T22:21:17.628Z,62.70
2017-07-15T22:23:45.188Z,62.70
2017-07-15T22:26:13.645Z,63.10
2017-07-15T22:28:41.197Z,63.10
2017-07-15T22:31:08.745Z,63.00
2017-07-15T22:33:36.355Z,63.40
2017-07-15T22:36:03.904Z,63.40
2017-07-15T22:38:31.491Z,63.50
2017-07-15T22:40:59.018Z,64.10
2017-07-15T22:43:26.601Z,64.10
2017-07-15T22:45:54.134Z,64.30
2017-07-15T22:48:21.715Z,65.50
2017-07-15T22:50:49.247Z,65.30
2017-07-15T22:53:16.814Z,64.90
2017-07-15T22:55:44.373Z,65.60
2017-07-15T22:58:12.751Z,65.50
2017-07-15T23:00:40.357Z,65.60
2017-07-15T23:03:07.868Z,65.60
2017-07-15T23:05:35.445Z,66.00
2017-07-15T23:08:02.954Z,65.70
2017-07-15T23:10:30.551Z,63.90
2017-07-15T23:12:58.108Z,63.50
2017-07-15T23:15:25.669Z,63.40
2017-07-15T23:17:53.195Z,63.60
2017-07-15T23:20:20.741Z,64.20
2017-07-15T23:22:48.281Z,64.60
2017-07-15T23:25:15.840Z,64.90
2017-07-15T23:27:43.352Z,64.50
2017-07-15T23:30:10.878Z,65.10
2017-07-15T23:32:38.413Z,65.20
2017-07-15T23:35:05.949Z,65.10
2017-07-15T23:37:33.489Z,65.20
2017-07-15T23:40:01.009Z,65.80
2017-07-15T23:42:28.560Z,65.90
2017-07-15T23:44:56.102Z,65.50
2017-07-15T23:47:23.628Z,65.50
2017-07-15T23:49:51.186Z,65.60
2017-07-15T23:52:18.708Z,65.80
2017-07-15T23:54:46.285Z,65.70
2017-07-15T23:57:13.842Z,65.90
2017-07-15T23:59:41.403Z,65.80
